createdAt,value
2018-04-18T00:00:38.158Z,92
2018-04-18T00:01:38.477Z,92
2018-04-18T00:02:38.044Z,92
2018-04-18T00:03:38.413Z,92
2018-04-18T00:04:38.180Z,92
2018-04-18T00:05:38.036Z,92
2018-04-18T00:06:38.881Z,92
2018-04-18T00:07:38.035Z,92
2018-04-18T00:08:38.007Z,92
2018-04-18T00:09:38.047Z,92
2018-04-18T00:10:38.558Z,92
2018-04-18T00:11:38.535Z,92
2018-04-18T00:12:38.437Z,92
2018-04-18T00:13:38.506Z,92
2018-04-18T00:14:38.415Z,92
2018-04-18T00:15:38.462Z,92
2018-04-18T00:16:38.539Z,92
2018-04-18T00:17:38.428Z,92
2018-04-18T00:18:38.012Z,92
2018-04-18T00:19:38.503Z,92
2018-04-18T00:20:38.551Z,92
2018-04-18T00:21:38.447Z,92
2018-04-18T00:22:38.401Z,92
2018-04-18T00:23:38.005Z,92
2018-04-18T00:24:38.231Z,92
2018-04-18T00:25:38.259Z,92
2018-04-18T00:26:38.012Z,93
2018-04-18T00:27:38.481Z,93
2018-04-18T00:28:38.539Z,93
2018-04-18T00:29:38.452Z,93
2018-04-18T00:30:38.299Z,93
2018-04-18T00:31:38.195Z,93
2018-04-18T00:32:38.016Z,93
2018-04-18T00:33:38.247Z,93
2018-04-18T00:34:38.467Z,93
2018-04-18T00:35:38.555Z,93
2018-04-18T00:36:38.504Z,93
2018-04-18T00:37:38.467Z,93
2018-04-18T00:38:38.478Z,93
2018-04-18T00:39:38.483Z,93
2018-04-18T00:40:38.515Z,93
2018-04-18T00:41:38.586Z,93
2018-04-18T00:42:38.263Z,93
2018-04-18T00:43:38.507Z,93
2018-04-18T00:44:38.515Z,93
2018-04-18T00:45:38.513Z,93
2018-04-18T00:46:41.019Z,93
2018-04-18T00:47:38.542Z,93
2018-04-18T00:48:38.102Z,93
2018-04-18T00:49:38.280Z,93
2018-04-18T00:50:38.106Z,93
2018-04-18T00:51:38.109Z,93
2018-04-18T00:52:38.291Z,93
2018-04-18T00:53:38.056Z,93
2018-04-18T00:54:38.096Z,93
2018-04-18T00:55:38.088Z,93
2018-04-18T00:56:38.273Z,93
2018-04-18T00:57:40.763Z,93
2018-04-18T00:58:38.554Z,93
2018-04-18T00:59:38.386Z,93
2018-04-18T01:00:38.512Z,93
2018-04-18T01:01:38.589Z,93
2018-04-18T01:02:38.095Z,94
2018-04-18T01:03:38.101Z,94
2018-04-18T01:04:38.609Z,94
2018-04-18T01:05:38.278Z,94
2018-04-18T01:06:38.543Z,94
2018-04-18T01:07:38.320Z,94
2018-04-18T01:08:38.078Z,94
2018-04-18T01:09:38.120Z,94
2018-04-18T01:10:38.126Z,94
2018-04-18T01:11:38.310Z,94
2018-04-18T01:12:38.150Z,94
2018-04-18T01:13:38.575Z,94
2018-04-18T01:14:38.632Z,94
2018-04-18T01:15:38.567Z,94
2018-04-18T01:16:38.598Z,94
2018-04-18T01:17:38.628Z,94
2018-04-18T01:18:38.137Z,94
2018-04-18T01:19:38.134Z,94
2018-04-18T01:20:38.121Z,94
2018-04-18T01:21:38.340Z,94
2018-04-18T01:22:38.323Z,94
2018-04-18T01:23:38.341Z,94
2018-04-18T01:24:38.683Z,94
2018-04-18T01:25:38.187Z,94
2018-04-18T01:26:38.384Z,94
2018-04-18T01:27:38.575Z,94
2018-04-18T01:28:38.598Z,94
2018-04-18T01:29:38.146Z,94
2018-04-18T01:30:38.271Z,94
2018-04-18T01:31:38.587Z,94
2018-04-18T01:32:38.348Z,94
2018-04-18T01:33:38.618Z,94
2018-04-18T01:34:38.358Z,94
2018-04-18T01:35:38.650Z,94
2018-04-18T01:36:38.443Z,94
2018-04-18T01:37:38.182Z,94
2018-04-18T01:38:38.640Z,94
2018-04-18T01:39:38.664Z,94
2018-04-18T01:40:38.577Z,94
2018-04-18T01:41:38.184Z,94
2018-04-18T01:42:38.642Z,94
2018-04-18T01:43:38.601Z,94
2018-04-18T01:44:38.641Z,94
2018-04-18T01:45:38.650Z,94
2018-04-18T01:46:38.603Z,94
2018-04-18T01:47:38.634Z,94
2018-04-18T01:48:38.657Z,95
2018-04-18T01:49:38.361Z,95
2018-04-18T01:50:38.640Z,94
2018-04-18T01:51:38.632Z,94
2018-04-18T01:52:38.668Z,94
2018-04-18T01:53:38.680Z,94
2018-04-18T01:54:38.647Z,94
2018-04-18T01:55:38.638Z,94
2018-04-18T01:56:38.681Z,94
2018-04-18T01:57:38.212Z,94
2018-04-18T01:58:38.638Z,94
2018-04-18T01:59:38.684Z,94
2018-04-18T02:00:38.708Z,94
2018-04-18T02:01:38.227Z,94
2018-04-18T02:02:38.653Z,94
2018-04-18T02:03:38.387Z,94
2018-04-18T02:04:38.668Z,94
2018-04-18T02:05:38.223Z,94
2018-04-18T02:06:38.407Z,94
2018-04-18T02:07:38.194Z,94
2018-04-18T02:08:38.646Z,94
2018-04-18T02:09:38.397Z,94
2018-04-18T02:10:38.430Z,94
2018-04-18T02:11:38.656Z,95
2018-04-18T02:12:38.697Z,95
2018-04-18T02:13:38.863Z,95
2018-04-18T02:14:38.655Z,95
2018-04-18T02:15:38.266Z,95
2018-04-18T02:16:38.679Z,95
2018-04-18T02:17:38.833Z,95
2018-04-18T02:18:38.426Z,95
2018-04-18T02:19:38.249Z,95
2018-04-18T02:20:38.719Z,95
2018-04-18T02:21:38.756Z,95
2018-04-18T02:22:38.253Z,95
2018-04-18T02:23:38.662Z,95
2018-04-18T02:24:38.794Z,95
2018-04-18T02:25:38.738Z,95
2018-04-18T02:26:38.471Z,95
2018-04-18T02:27:38.416Z,95
2018-04-18T02:28:38.447Z,95
2018-04-18T02:29:38.437Z,95
2018-04-18T02:30:38.684Z,95
2018-04-18T02:31:38.734Z,95
2018-04-18T02:32:38.302Z,95
2018-04-18T02:33:38.727Z,95
2018-04-18T02:34:38.702Z,95
2018-04-18T02:35:38.447Z,95
2018-04-18T02:36:38.719Z,95
2018-04-18T02:37:38.734Z,95
2018-04-18T02:38:38.823Z,95
2018-04-18T02:39:38.717Z,95
2018-04-18T02:40:38.970Z,95
2018-04-18T02:41:38.540Z,95
2018-04-18T02:42:38.267Z,95
2018-04-18T02:43:38.582Z,95
2018-04-18T02:44:38.474Z,95
2018-04-18T02:45:38.778Z,95
2018-04-18T02:46:38.304Z,95
2018-04-18T02:47:38.708Z,95
2018-04-18T02:48:38.835Z,95
2018-04-18T02:49:38.477Z,95
2018-04-18T02:50:38.454Z,95
2018-04-18T02:51:38.801Z,95
2018-04-18T02:52:38.314Z,95
2018-04-18T02:53:38.771Z,95
2018-04-18T02:54:38.771Z,95
2018-04-18T02:55:38.484Z,95
2018-04-18T02:56:38.794Z,95
2018-04-18T02:57:38.743Z,95
2018-04-18T02:58:38.793Z,95
2018-04-18T02:59:38.523Z,95
2018-04-18T03:00:38.819Z,95
2018-04-18T03:01:38.472Z,95
2018-04-18T03:02:38.350Z,95
2018-04-18T03:03:38.760Z,95
2018-04-18T03:04:38.281Z,95
2018-04-18T03:05:38.324Z,95
2018-04-18T03:06:38.711Z,95
2018-04-18T03:07:38.780Z,95
2018-04-18T03:08:38.326Z,95
2018-04-18T03:09:38.789Z,95
2018-04-18T03:10:38.748Z,95
2018-04-18T03:11:38.257Z,95
2018-04-18T03:12:38.795Z,95
2018-04-18T03:13:38.748Z,95
2018-04-18T03:14:38.328Z,95
2018-04-18T03:15:38.854Z,95
2018-04-18T03:16:38.340Z,95
2018-04-18T03:17:38.728Z,95
2018-04-18T03:18:38.575Z,95
2018-04-18T03:19:38.329Z,96
2018-04-18T03:20:38.861Z,96
2018-04-18T03:21:38.806Z,96
2018-04-18T03:22:39.102Z,96
2018-04-18T03:23:38.352Z,96
2018-04-18T03:24:38.759Z,96
2018-04-18T03:25:38.924Z,96
2018-04-18T03:26:38.792Z,96
2018-04-18T03:27:38.913Z,96
2018-04-18T03:28:38.396Z,96
2018-04-18T03:29:38.802Z,96
2018-04-18T03:30:38.540Z,96
2018-04-18T03:31:38.412Z,96
2018-04-18T03:32:38.547Z,96
2018-04-18T03:33:38.370Z,96
2018-04-18T03:34:38.857Z,96
2018-04-18T03:35:38.357Z,96
2018-04-18T03:36:38.585Z,96
2018-04-18T03:37:38.821Z,96
2018-04-18T03:38:38.816Z,96
2018-04-18T03:39:38.843Z,96
2018-04-18T03:40:38.867Z,96
2018-04-18T03:41:38.574Z,96
2018-04-18T03:42:38.385Z,96
2018-04-18T03:43:38.400Z,96
2018-04-18T03:44:38.879Z,96
2018-04-18T03:45:38.409Z,96
2018-04-18T03:46:38.820Z,96
2018-04-18T03:47:38.386Z,96
2018-04-18T03:48:38.391Z,96
2018-04-18T03:49:38.820Z,96
2018-04-18T03:50:38.544Z,96
2018-04-18T03:51:38.853Z,96
2018-04-18T03:52:38.866Z,96
2018-04-18T03:53:38.551Z,96
2018-04-18T03:54:38.556Z,96
2018-04-18T03:55:38.594Z,96
2018-04-18T03:56:38.431Z,96
2018-04-18T03:57:38.978Z,96
2018-04-18T03:58:38.873Z,96
2018-04-18T03:59:38.599Z,96
2018-04-18T04:00:38.555Z,96
2018-04-18T04:01:38.541Z,96
2018-04-18T04:02:38.906Z,96
2018-04-18T04:03:38.845Z,96
2018-04-18T04:04:38.973Z,96
2018-04-18T04:05:38.428Z,96
2018-04-18T04:06:38.619Z,96
2018-04-18T04:07:38.875Z,96
2018-04-18T04:08:38.587Z,96
2018-04-18T04:09:38.598Z,96
2018-04-18T04:10:38.417Z,96
2018-04-18T04:11:38.888Z,96
2018-04-18T04:12:38.604Z,96
2018-04-18T04:13:38.902Z,96
2018-04-18T04:14:38.541Z,96
2018-04-18T04:15:38.382Z,96
2018-04-18T04:16:38.434Z,96
2018-04-18T04:17:38.616Z,96
2018-04-18T04:18:38.948Z,96
2018-04-18T04:19:38.812Z,96
2018-04-18T04:20:38.701Z,96
2018-04-18T04:21:38.650Z,96
2018-04-18T04:22:38.649Z,96
2018-04-18T04:23:38.627Z,96
2018-04-18T04:24:38.641Z,96
2018-04-18T04:25:38.867Z,96
2018-04-18T04:26:38.674Z,96
2018-04-18T04:27:38.499Z,96
2018-04-18T04:28:38.931Z,97
2018-04-18T04:29:38.534Z,97
2018-04-18T04:30:38.933Z,96
2018-04-18T04:31:38.618Z,96
2018-04-18T04:32:38.468Z,96
2018-04-18T04:33:38.949Z,97
2018-04-18T04:34:38.512Z,97
2018-04-18T04:35:39.011Z,97
2018-04-18T04:36:38.928Z,97
2018-04-18T04:37:38.620Z,97
2018-04-18T04:38:38.651Z,97
2018-04-18T04:39:38.936Z,97
2018-04-18T04:40:38.514Z,97
2018-04-18T04:41:38.830Z,97
2018-04-18T04:42:38.686Z,97
2018-04-18T04:43:38.929Z,97
2018-04-18T04:44:38.508Z,97
2018-04-18T04:45:38.965Z,97
2018-04-18T04:46:38.963Z,97
2018-04-18T04:47:38.979Z,97
2018-04-18T04:48:38.675Z,97
2018-04-18T04:49:39.922Z,97
2018-04-18T04:50:39.659Z,97
2018-04-18T04:51:38.935Z,97
2018-04-18T04:52:38.535Z,97
2018-04-18T04:53:38.988Z,97
2018-04-18T04:54:38.940Z,97
2018-04-18T04:55:38.989Z,97
2018-04-18T04:56:38.694Z,97
2018-04-18T04:57:38.987Z,97
2018-04-18T04:58:38.514Z,97
2018-04-18T04:59:38.730Z,97
2018-04-18T05:00:38.944Z,97
2018-04-18T05:01:38.961Z,97
2018-04-18T05:02:38.742Z,97
2018-04-18T05:03:38.982Z,97
2018-04-18T05:04:38.535Z,97
2018-04-18T05:05:38.752Z,97
2018-04-18T05:06:39.018Z,97
2018-04-18T05:07:38.701Z,97
2018-04-18T05:08:38.785Z,97
2018-04-18T05:09:38.571Z,97
2018-04-18T05:10:39.062Z,97
2018-04-18T05:11:39.098Z,97
2018-04-18T05:12:39.078Z,97
2018-04-18T05:13:39.030Z,97
2018-04-18T05:14:39.020Z,97
2018-04-18T05:15:38.996Z,97
2018-04-18T05:16:39.066Z,97
2018-04-18T05:17:39.067Z,97
2018-04-18T05:18:38.743Z,97
2018-04-18T05:19:38.836Z,97
2018-04-18T05:20:39.066Z,97
2018-04-18T05:21:39.985Z,97
2018-04-18T05:22:38.658Z,97
2018-04-18T05:23:39.116Z,97
2018-04-18T05:24:38.603Z,97
2018-04-18T05:25:39.139Z,97
2018-04-18T05:26:39.040Z,97
2018-04-18T05:27:38.864Z,97
2018-04-18T05:28:39.123Z,97
2018-04-18T05:29:38.847Z,97
2018-04-18T05:30:39.269Z,97
2018-04-18T05:31:38.828Z,97
2018-04-18T05:32:38.673Z,97
2018-04-18T05:33:39.096Z,97
2018-04-18T05:34:39.127Z,97
2018-04-18T05:35:38.728Z,97
2018-04-18T05:36:38.860Z,97
2018-04-18T05:37:39.145Z,97
2018-04-18T05:38:39.169Z,97
2018-04-18T05:39:38.848Z,97
2018-04-18T05:40:38.653Z,97
2018-04-18T05:41:39.165Z,97
2018-04-18T05:42:39.106Z,97
2018-04-18T05:43:39.102Z,97
2018-04-18T05:44:38.723Z,96
2018-04-18T05:45:38.680Z,96
2018-04-18T05:46:39.144Z,96
2018-04-18T05:47:38.868Z,96
2018-04-18T05:48:38.908Z,96
2018-04-18T05:49:38.668Z,96
2018-04-18T05:50:38.885Z,96
2018-04-18T05:51:39.192Z,96
2018-04-18T05:52:39.748Z,97
2018-04-18T05:53:39.269Z,97
2018-04-18T05:54:38.668Z,96
2018-04-18T05:55:38.844Z,96
2018-04-18T05:56:39.339Z,96
2018-04-18T05:57:39.012Z,96
2018-04-18T05:58:39.152Z,96
2018-04-18T05:59:39.185Z,96
2018-04-18T06:00:39.151Z,96
2018-04-18T06:01:39.171Z,96
2018-04-18T06:02:39.103Z,96
2018-04-18T06:03:38.702Z,96
2018-04-18T06:04:38.876Z,95
2018-04-18T06:05:38.922Z,95
2018-04-18T06:06:38.877Z,95
2018-04-18T06:07:39.048Z,95
2018-04-18T06:08:39.265Z,95
2018-04-18T06:09:39.227Z,95
2018-04-18T06:10:39.173Z,95
2018-04-18T06:11:39.217Z,95
2018-04-18T06:12:39.220Z,94
2018-04-18T06:13:38.782Z,94
2018-04-18T06:14:38.838Z,94
2018-04-18T06:15:39.150Z,93
2018-04-18T06:16:39.213Z,93
2018-04-18T06:17:38.745Z,92
2018-04-18T06:18:38.950Z,92
2018-04-18T06:19:39.268Z,92
2018-04-18T06:20:39.273Z,91
2018-04-18T06:21:38.782Z,91
2018-04-18T06:22:39.144Z,90
2018-04-18T06:23:39.179Z,90
2018-04-18T06:24:39.180Z,90
2018-04-18T06:25:38.699Z,89
2018-04-18T06:26:39.129Z,89
2018-04-18T06:27:38.961Z,87
2018-04-18T06:28:39.132Z,87
2018-04-18T06:29:39.208Z,87
2018-04-18T06:30:39.163Z,85
2018-04-18T06:31:39.213Z,85
2018-04-18T06:32:39.321Z,84
2018-04-18T06:33:39.213Z,84
2018-04-18T06:34:38.906Z,84
2018-04-18T06:35:39.138Z,83
2018-04-18T06:36:39.214Z,83
2018-04-18T06:37:39.226Z,83
2018-04-18T06:38:38.763Z,83
2018-04-18T06:39:39.170Z,83
2018-04-18T06:40:38.954Z,82
2018-04-18T06:41:38.748Z,82
2018-04-18T06:42:39.231Z,82
2018-04-18T06:43:38.903Z,82
2018-04-18T06:44:39.051Z,82
2018-04-18T06:45:39.174Z,80
2018-04-18T06:46:39.192Z,80
2018-04-18T06:47:38.953Z,80
2018-04-18T06:48:38.739Z,78
2018-04-18T06:49:39.228Z,78
2018-04-18T06:50:39.200Z,76
2018-04-18T06:51:38.988Z,76
2018-04-18T06:52:39.273Z,76
2018-04-18T06:53:38.781Z,75
2018-04-18T06:54:39.238Z,75
2018-04-18T06:55:39.283Z,75
2018-04-18T06:56:39.167Z,75
2018-04-18T06:57:39.252Z,75
2018-04-18T06:58:39.201Z,74
2018-04-18T06:59:38.914Z,74
2018-04-18T07:00:38.931Z,74
2018-04-18T07:01:39.300Z,74
2018-04-18T07:02:38.819Z,74
2018-04-18T07:03:38.806Z,74
2018-04-18T07:04:38.987Z,74
2018-04-18T07:05:39.212Z,74
2018-04-18T07:06:39.273Z,74
2018-04-18T07:07:39.282Z,74
2018-04-18T07:08:38.941Z,73
2018-04-18T07:09:39.092Z,73
2018-04-18T07:10:39.217Z,73
2018-04-18T07:11:38.907Z,73
2018-04-18T07:12:39.225Z,73
2018-04-18T07:13:39.192Z,72
2018-04-18T07:14:39.311Z,72
2018-04-18T07:15:39.266Z,72
2018-04-18T07:16:38.831Z,71
2018-04-18T07:17:38.769Z,71
2018-04-18T07:18:38.833Z,71
2018-04-18T07:19:38.841Z,71
2018-04-18T07:20:39.221Z,71
2018-04-18T07:21:38.988Z,69
2018-04-18T07:22:39.255Z,69
2018-04-18T07:23:38.803Z,69
2018-04-18T07:24:39.210Z,69
2018-04-18T07:25:38.875Z,69
2018-04-18T07:26:39.270Z,69
2018-04-18T07:27:39.040Z,69
2018-04-18T07:28:39.294Z,68
2018-04-18T07:29:39.264Z,68
2018-04-18T07:30:39.214Z,68
2018-04-18T07:31:39.277Z,69
2018-04-18T07:32:39.279Z,69
2018-04-18T07:33:39.011Z,69
2018-04-18T07:34:39.297Z,69
2018-04-18T07:35:38.854Z,69
2018-04-18T07:36:38.819Z,68
2018-04-18T07:37:39.009Z,68
2018-04-18T07:38:39.030Z,68
2018-04-18T07:39:39.024Z,68
2018-04-18T07:40:39.295Z,68
2018-04-18T07:41:39.342Z,69
2018-04-18T07:42:39.380Z,69
2018-04-18T07:43:39.059Z,69
2018-04-18T07:44:39.381Z,68
2018-04-18T07:45:39.298Z,68
2018-04-18T07:46:39.479Z,68
2018-04-18T07:47:39.333Z,68
2018-04-18T07:48:39.062Z,68
2018-04-18T07:49:39.546Z,66
2018-04-18T07:50:39.018Z,66
2018-04-18T07:51:39.341Z,66
2018-04-18T07:52:38.922Z,66
2018-04-18T07:53:38.910Z,66
2018-04-18T07:54:39.051Z,65
2018-04-18T07:55:39.079Z,65
2018-04-18T07:56:39.331Z,66
2018-04-18T07:57:39.316Z,66
2018-04-18T07:58:39.358Z,66
2018-04-18T07:59:39.368Z,66
2018-04-18T08:00:39.067Z,66
2018-04-18T08:01:39.359Z,65
2018-04-18T08:02:39.365Z,65
2018-04-18T08:03:39.345Z,65
2018-04-18T08:04:38.974Z,61
2018-04-18T08:05:39.083Z,61
2018-04-18T08:06:38.927Z,58
2018-04-18T08:07:38.916Z,58
2018-04-18T08:08:39.418Z,58
2018-04-18T08:09:39.320Z,57
2018-04-18T08:10:39.136Z,57
2018-04-18T08:11:39.024Z,57
2018-04-18T08:12:39.346Z,57
2018-04-18T08:13:38.944Z,57
2018-04-18T08:14:39.438Z,57
2018-04-18T08:15:39.154Z,57
2018-04-18T08:16:38.967Z,57
2018-04-18T08:17:38.944Z,56
2018-04-18T08:18:39.164Z,56
2018-04-18T08:19:39.345Z,57
2018-04-18T08:20:39.131Z,57
2018-04-18T08:21:39.352Z,57
2018-04-18T08:22:39.448Z,56
2018-04-18T08:23:39.535Z,56
2018-04-18T08:24:39.142Z,56
2018-04-18T08:25:41.409Z,56
2018-04-18T08:26:39.135Z,56
2018-04-18T08:27:39.372Z,56
2018-04-18T08:28:38.934Z,56
2018-04-18T08:29:39.253Z,55
2018-04-18T08:30:39.440Z,55
2018-04-18T08:31:39.104Z,55
2018-04-18T08:32:39.396Z,55
2018-04-18T08:33:39.466Z,55
2018-04-18T08:34:39.156Z,55
2018-04-18T08:35:39.412Z,55
2018-04-18T08:36:39.117Z,55
2018-04-18T08:37:39.385Z,55
2018-04-18T08:38:39.024Z,55
2018-04-18T08:39:39.412Z,55
2018-04-18T08:40:39.406Z,55
2018-04-18T08:41:39.118Z,55
2018-04-18T08:42:39.110Z,56
2018-04-18T08:43:39.831Z,56
2018-04-18T08:44:39.510Z,56
2018-04-18T08:45:39.074Z,53
2018-04-18T08:46:39.434Z,53
2018-04-18T08:47:39.038Z,54
2018-04-18T08:48:39.070Z,54
2018-04-18T08:49:39.502Z,54
2018-04-18T08:50:39.435Z,53
2018-04-18T08:51:38.971Z,53
2018-04-18T08:52:39.458Z,52
2018-04-18T08:53:39.168Z,52
2018-04-18T08:54:38.976Z,52
2018-04-18T08:55:39.523Z,52
2018-04-18T08:56:39.496Z,52
2018-04-18T08:57:39.194Z,52
2018-04-18T08:58:39.026Z,52
2018-04-18T08:59:39.557Z,52
2018-04-18T09:00:39.568Z,51
2018-04-18T09:01:39.504Z,51
2018-04-18T09:02:38.996Z,52
2018-04-18T09:03:39.454Z,52
2018-04-18T09:04:39.468Z,52
2018-04-18T09:05:39.047Z,52
2018-04-18T09:06:39.455Z,52
2018-04-18T09:07:39.463Z,50
2018-04-18T09:08:39.421Z,50
2018-04-18T09:09:39.480Z,50
2018-04-18T09:10:39.475Z,50
2018-04-18T09:11:39.467Z,50
2018-04-18T09:12:39.463Z,50
2018-04-18T09:13:39.429Z,50
2018-04-18T09:14:39.540Z,50
2018-04-18T09:15:39.379Z,51
2018-04-18T09:16:39.237Z,51
2018-04-18T09:17:39.528Z,51
2018-04-18T09:18:39.549Z,49
2018-04-18T09:19:39.251Z,49
2018-04-18T09:20:39.237Z,49
2018-04-18T09:21:39.062Z,49
2018-04-18T09:22:39.096Z,49
2018-04-18T09:23:39.493Z,49
2018-04-18T09:24:39.078Z,49
2018-04-18T09:25:39.538Z,47
2018-04-18T09:26:39.520Z,47
2018-04-18T09:27:39.305Z,47
2018-04-18T09:28:40.025Z,47
2018-04-18T09:29:39.681Z,47
2018-04-18T09:30:39.085Z,47
2018-04-18T09:31:39.528Z,47
2018-04-18T09:32:39.614Z,47
2018-04-18T09:33:39.119Z,48
2018-04-18T09:34:39.551Z,48
2018-04-18T09:35:39.086Z,47
2018-04-18T09:36:39.136Z,47
2018-04-18T09:37:39.624Z,47
2018-04-18T09:38:39.524Z,46
2018-04-18T09:39:39.597Z,46
2018-04-18T09:40:39.505Z,47
2018-04-18T09:41:39.493Z,47
2018-04-18T09:42:39.136Z,47
2018-04-18T09:43:39.260Z,48
2018-04-18T09:44:39.559Z,48
2018-04-18T09:45:39.127Z,48
2018-04-18T09:46:39.315Z,47
2018-04-18T09:47:39.081Z,47
2018-04-18T09:48:39.537Z,46
2018-04-18T09:49:39.751Z,46
2018-04-18T09:50:39.551Z,46
2018-04-18T09:51:39.116Z,47
2018-04-18T09:52:39.550Z,47
2018-04-18T09:53:39.331Z,47
2018-04-18T09:54:39.584Z,47
2018-04-18T09:55:39.323Z,47
2018-04-18T09:56:39.335Z,47
2018-04-18T09:57:39.512Z,47
2018-04-18T09:58:39.280Z,46
2018-04-18T09:59:39.615Z,46
2018-04-18T10:00:40.192Z,46
2018-04-18T10:01:39.557Z,46
2018-04-18T10:02:39.314Z,46
2018-04-18T10:03:39.088Z,47
2018-04-18T10:04:39.515Z,47
2018-04-18T10:05:39.305Z,47
2018-04-18T10:06:39.604Z,45
2018-04-18T10:07:39.550Z,45
2018-04-18T10:08:39.168Z,45
2018-04-18T10:09:39.599Z,45
2018-04-18T10:10:39.332Z,45
2018-04-18T10:11:39.599Z,46
2018-04-18T10:12:39.327Z,46
2018-04-18T10:13:39.610Z,44
2018-04-18T10:14:39.602Z,44
2018-04-18T10:15:39.617Z,44
2018-04-18T10:16:39.130Z,44
2018-04-18T10:17:39.311Z,44
2018-04-18T10:18:39.593Z,44
2018-04-18T10:19:39.629Z,44
2018-04-18T10:20:39.591Z,44
2018-04-18T10:21:39.471Z,44
2018-04-18T10:22:39.657Z,44
2018-04-18T10:23:39.343Z,44
2018-04-18T10:24:39.579Z,43
2018-04-18T10:25:39.338Z,43
2018-04-18T10:26:39.190Z,44
2018-04-18T10:27:39.355Z,44
2018-04-18T10:28:39.780Z,44
2018-04-18T10:29:39.676Z,45
2018-04-18T10:30:39.230Z,45
2018-04-18T10:31:39.457Z,43
2018-04-18T10:32:39.335Z,43
2018-04-18T10:33:39.709Z,43
2018-04-18T10:34:39.162Z,44
2018-04-18T10:35:39.180Z,44
2018-04-18T10:36:39.171Z,44
2018-04-18T10:37:39.400Z,44
2018-04-18T10:38:39.394Z,44
2018-04-18T10:39:39.659Z,44
2018-04-18T10:40:39.657Z,44
2018-04-18T10:41:39.590Z,44
2018-04-18T10:42:39.688Z,44
2018-04-18T10:43:39.636Z,44
2018-04-18T10:44:39.711Z,43
2018-04-18T10:45:39.180Z,43
2018-04-18T10:46:39.615Z,43
2018-04-18T10:47:39.652Z,44
2018-04-18T10:48:39.209Z,44
2018-04-18T10:49:39.650Z,42
2018-04-18T10:50:39.387Z,42
2018-04-18T10:51:39.546Z,42
2018-04-18T10:52:39.195Z,42
2018-04-18T10:53:39.244Z,42
2018-04-18T10:54:39.233Z,42
2018-04-18T10:55:39.283Z,42
2018-04-18T10:56:39.370Z,42
2018-04-18T10:57:39.597Z,42
2018-04-18T10:58:39.255Z,42
2018-04-18T10:59:39.755Z,42
2018-04-18T11:00:39.257Z,42
2018-04-18T11:01:39.231Z,42
2018-04-18T11:02:39.248Z,44
2018-04-18T11:03:39.436Z,44
2018-04-18T11:04:39.217Z,42
2018-04-18T11:05:39.263Z,42
2018-04-18T11:06:39.238Z,42
2018-04-18T11:07:39.410Z,44
2018-04-18T11:08:39.676Z,44
2018-04-18T11:09:39.715Z,41
2018-04-18T11:10:39.783Z,41
2018-04-18T11:11:39.673Z,41
2018-04-18T11:12:39.399Z,42
2018-04-18T11:13:39.217Z,42
2018-04-18T11:14:39.340Z,42
2018-04-18T11:15:39.727Z,42
2018-04-18T11:16:39.742Z,42
2018-04-18T11:17:39.429Z,41
2018-04-18T11:18:39.813Z,41
2018-04-18T11:19:39.465Z,41
2018-04-18T11:20:39.288Z,42
2018-04-18T11:21:39.795Z,42
2018-04-18T11:22:39.698Z,42
2018-04-18T11:23:39.667Z,42
2018-04-18T11:24:39.499Z,42
2018-04-18T11:25:39.723Z,44
2018-04-18T11:26:39.688Z,44
2018-04-18T11:27:39.320Z,42
2018-04-18T11:28:39.821Z,42
2018-04-18T11:29:39.574Z,42
2018-04-18T11:30:39.355Z,41
2018-04-18T11:31:39.730Z,41
2018-04-18T11:32:39.708Z,42
2018-04-18T11:33:39.233Z,42
2018-04-18T11:34:39.275Z,42
2018-04-18T11:35:39.739Z,43
2018-04-18T11:36:39.674Z,43
2018-04-18T11:37:39.239Z,42
2018-04-18T11:38:39.752Z,42
2018-04-18T11:39:39.776Z,42
2018-04-18T11:40:39.466Z,42
2018-04-18T11:41:39.460Z,42
2018-04-18T11:42:39.371Z,41
2018-04-18T11:43:39.537Z,41
2018-04-18T11:44:39.416Z,41
2018-04-18T11:45:39.493Z,40
2018-04-18T11:46:39.476Z,40
2018-04-18T11:47:39.494Z,40
2018-04-18T11:48:39.518Z,39
2018-04-18T11:49:39.778Z,39
2018-04-18T11:50:39.829Z,39
2018-04-18T11:51:39.549Z,39
2018-04-18T11:52:39.542Z,39
2018-04-18T11:53:39.801Z,40
2018-04-18T11:54:39.781Z,40
2018-04-18T11:55:39.337Z,39
2018-04-18T11:56:39.362Z,39
2018-04-18T11:57:39.549Z,39
2018-04-18T11:58:39.802Z,39
2018-04-18T11:59:39.829Z,39
2018-04-18T12:00:39.390Z,38
2018-04-18T12:01:39.793Z,38
2018-04-18T12:02:39.847Z,38
2018-04-18T12:03:39.562Z,38
2018-04-18T12:04:39.383Z,38
2018-04-18T12:05:39.876Z,38
2018-04-18T12:06:39.352Z,38
2018-04-18T12:07:39.758Z,38
2018-04-18T12:08:39.434Z,37
2018-04-18T12:09:39.542Z,37
2018-04-18T12:10:39.525Z,38
2018-04-18T12:11:39.903Z,38
2018-04-18T12:12:39.828Z,38
2018-04-18T12:13:39.777Z,38
2018-04-18T12:14:39.905Z,38
2018-04-18T12:15:39.767Z,39
2018-04-18T12:16:39.842Z,39
2018-04-18T12:17:39.382Z,39
2018-04-18T12:18:39.810Z,39
2018-04-18T12:19:39.875Z,39
2018-04-18T12:20:39.877Z,39
2018-04-18T12:21:39.609Z,42
2018-04-18T12:22:39.857Z,42
2018-04-18T12:23:39.578Z,43
2018-04-18T12:24:39.855Z,43
2018-04-18T12:25:39.571Z,43
2018-04-18T12:26:39.811Z,41
2018-04-18T12:27:39.570Z,41
2018-04-18T12:28:39.909Z,39
2018-04-18T12:29:39.867Z,39
2018-04-18T12:30:39.378Z,39
2018-04-18T12:31:39.576Z,39
2018-04-18T12:32:39.401Z,39
2018-04-18T12:33:39.623Z,40
2018-04-18T12:34:39.640Z,40
2018-04-18T12:35:39.878Z,40
2018-04-18T12:36:39.589Z,39
2018-04-18T12:37:39.840Z,39
2018-04-18T12:38:39.392Z,39
2018-04-18T12:39:39.822Z,39
2018-04-18T12:40:39.582Z,39
2018-04-18T12:41:39.484Z,39
2018-04-18T12:42:39.526Z,39
2018-04-18T12:43:39.588Z,39
2018-04-18T12:44:39.688Z,39
2018-04-18T12:45:39.440Z,39
2018-04-18T12:46:39.899Z,37
2018-04-18T12:47:39.865Z,37
2018-04-18T12:48:39.856Z,37
2018-04-18T12:49:39.454Z,37
2018-04-18T12:50:39.884Z,37
2018-04-18T12:51:39.851Z,37
2018-04-18T12:52:39.421Z,37
2018-04-18T12:53:39.420Z,37
2018-04-18T12:54:39.573Z,38
2018-04-18T12:55:39.478Z,38
2018-04-18T12:56:39.867Z,38
2018-04-18T12:57:39.629Z,38
2018-04-18T12:58:39.442Z,38
2018-04-18T12:59:39.919Z,38
2018-04-18T13:00:39.449Z,38
2018-04-18T13:01:39.455Z,38
2018-04-18T13:02:39.462Z,38
2018-04-18T13:03:39.499Z,38
2018-04-18T13:04:39.628Z,39
2018-04-18T13:05:39.857Z,39
2018-04-18T13:06:39.496Z,38
2018-04-18T13:07:39.429Z,38
2018-04-18T13:08:39.909Z,38
2018-04-18T13:09:39.887Z,38
2018-04-18T13:10:39.979Z,38
2018-04-18T13:11:39.940Z,39
2018-04-18T13:12:39.905Z,39
2018-04-18T13:13:39.952Z,39
2018-04-18T13:14:39.803Z,38
2018-04-18T13:15:39.670Z,38
2018-04-18T13:16:39.634Z,39
2018-04-18T13:17:39.921Z,39
2018-04-18T13:18:39.895Z,39
2018-04-18T13:19:39.994Z,40
2018-04-18T13:20:39.902Z,40
2018-04-18T13:21:40.295Z,40
2018-04-18T13:22:39.491Z,39
2018-04-18T13:23:39.649Z,39
2018-04-18T13:24:39.662Z,39
2018-04-18T13:25:39.693Z,39
2018-04-18T13:26:39.499Z,39
2018-04-18T13:27:39.634Z,39
2018-04-18T13:28:39.964Z,39
2018-04-18T13:29:39.791Z,39
2018-04-18T13:30:39.669Z,39
2018-04-18T13:31:39.719Z,39
2018-04-18T13:32:39.926Z,38
2018-04-18T13:33:39.528Z,38
2018-04-18T13:34:39.985Z,38
2018-04-18T13:35:39.529Z,38
2018-04-18T13:36:39.998Z,38
2018-04-18T13:37:40.010Z,38
2018-04-18T13:38:39.701Z,38
2018-04-18T13:39:39.953Z,38
2018-04-18T13:40:39.659Z,38
2018-04-18T13:41:39.675Z,38
2018-04-18T13:42:39.549Z,38
2018-04-18T13:43:39.651Z,38
2018-04-18T13:44:39.610Z,38
2018-04-18T13:45:39.674Z,38
2018-04-18T13:46:39.514Z,38
2018-04-18T13:47:39.565Z,37
2018-04-18T13:48:40.020Z,37
2018-04-18T13:49:39.998Z,37
2018-04-18T13:50:40.001Z,38
2018-04-18T13:51:39.726Z,38
2018-04-18T13:52:39.741Z,37
2018-04-18T13:53:39.568Z,37
2018-04-18T13:54:40.025Z,37
2018-04-18T13:55:39.744Z,39
2018-04-18T13:56:40.131Z,39
2018-04-18T13:57:39.987Z,35
2018-04-18T13:58:40.011Z,35
2018-04-18T13:59:40.049Z,35
2018-04-18T14:00:40.014Z,36
2018-04-18T14:01:39.752Z,36
2018-04-18T14:02:39.597Z,35
2018-04-18T14:03:39.934Z,35
2018-04-18T14:04:39.774Z,35
2018-04-18T14:05:39.567Z,35
2018-04-18T14:06:40.033Z,35
2018-04-18T14:07:39.741Z,34
2018-04-18T14:08:39.738Z,34
2018-04-18T14:09:40.002Z,34
2018-04-18T14:10:39.600Z,35
2018-04-18T14:11:40.012Z,35
2018-04-18T14:12:40.119Z,34
2018-04-18T14:13:39.666Z,34
2018-04-18T14:14:39.840Z,34
2018-04-18T14:15:40.022Z,33